sensor_id;sensor_type;location;lat;lon;timestamp;P1;durP1;ratioP1;P2;durP2;ratioP2
63316;SDS011;49822;41.468;13.560;2022-12-22T00:00:04;142.82;;;53.30;;
63316;SDS011;49822;41.468;13.560;2022-12-22T00:02:53;116.15;;;50.78;;
63316;SDS011;49822;41.468;13.560;2022-12-22T00:05:39;119.13;;;52.08;;
63316;SDS011;49822;41.468;13.560;2022-12-22T00:08:25;128.75;;;54.65;;
63316;SDS011;49822;41.468;13.560;2022-12-22T00:11:11;154.02;;;61.58;;
63316;SDS011;49822;41.468;13.560;2022-12-22T00:13:58;139.50;;;57.67;;
63316;SDS011;49822;41.468;13.560;2022-12-22T00:16:43;140.15;;;57.38;;
63316;SDS011;49822;41.468;13.560;2022-12-22T00:19:30;124.97;;;53.63;;
63316;SDS011;49822;41.468;13.560;2022-12-22T00:22:22;142.30;;;59.75;;
63316;SDS011;49822;41.468;13.560;2022-12-22T00:25:13;136.40;;;54.88;;
63316;SDS011;49822;41.468;13.560;2022-12-22T00:28:02;105.68;;;46.22;;
63316;SDS011;49822;41.468;13.560;2022-12-22T00:30:55;96.70;;;43.20;;
63316;SDS011;49822;41.468;13.560;2022-12-22T00:33:41;98.18;;;41.13;;
63316;SDS011;49822;41.468;13.560;2022-12-22T00:36:27;108.47;;;44.05;;
63316;SDS011;49822;41.468;13.560;2022-12-22T00:39:13;87.35;;;36.90;;
63316;SDS011;49822;41.468;13.560;2022-12-22T00:41:59;90.53;;;33.40;;
63316;SDS011;49822;41.468;13.560;2022-12-22T00:44:46;121.57;;;51.55;;
63316;SDS011;49822;41.468;13.560;2022-12-22T00:47:32;127.93;;;50.08;;
63316;SDS011;49822;41.468;13.560;2022-12-22T00:50:18;139.95;;;54.72;;
63316;SDS011;49822;41.468;13.560;2022-12-22T00:53:07;122.35;;;48.20;;
63316;SDS011;49822;41.468;13.560;2022-12-22T00:55:53;114.07;;;46.42;;
63316;SDS011;49822;41.468;13.560;2022-12-22T00:58:39;137.30;;;51.03;;
63316;SDS011;49822;41.468;13.560;2022-12-22T01:01:25;140.25;;;56.13;;
63316;SDS011;49822;41.468;13.560;2022-12-22T01:04:11;117.38;;;48.08;;
63316;SDS011;49822;41.468;13.560;2022-12-22T01:06:57;119.32;;;46.28;;
63316;SDS011;49822;41.468;13.560;2022-12-22T01:09:44;134.98;;;45.25;;
63316;SDS011;49822;41.468;13.560;2022-12-22T01:12:39;129.40;;;45.67;;
63316;SDS011;49822;41.468;13.560;2022-12-22T01:15:27;116.55;;;45.90;;
63316;SDS011;49822;41.468;13.560;2022-12-22T01:18:15;126.53;;;48.03;;
63316;SDS011;49822;41.468;13.560;2022-12-22T01:21:01;120.05;;;48.55;;
63316;SDS011;49822;41.468;13.560;2022-12-22T01:23:48;125.15;;;46.83;;
63316;SDS011;49822;41.468;13.560;2022-12-22T01:26:34;126.53;;;45.53;;
63316;SDS011;49822;41.468;13.560;2022-12-22T01:29:20;109.80;;;41.83;;
63316;SDS011;49822;41.468;13.560;2022-12-22T01:32:09;114.38;;;43.08;;
63316;SDS011;49822;41.468;13.560;2022-12-22T01:34:58;123.70;;;48.58;;
63316;SDS011;49822;41.468;13.560;2022-12-22T01:37:44;119.00;;;49.30;;
63316;SDS011;49822;41.468;13.560;2022-12-22T01:40:29;114.15;;;45.50;;
63316;SDS011;49822;41.468;13.560;2022-12-22T01:43:19;115.43;;;44.10;;
63316;SDS011;49822;41.468;13.560;2022-12-22T01:46:19;141.52;;;50.35;;
63316;SDS011;49822;41.468;13.560;2022-12-22T01:49:09;121.95;;;44.05;;
63316;SDS011;49822;41.468;13.560;2022-12-22T01:51:59;129.73;;;47.45;;
63316;SDS011;49822;41.468;13.560;2022-12-22T01:54:47;150.07;;;49.83;;
63316;SDS011;49822;41.468;13.560;2022-12-22T01:57:33;129.93;;;45.05;;
63316;SDS011;49822;41.468;13.560;2022-12-22T02:00:22;112.22;;;41.83;;
63316;SDS011;49822;41.468;13.560;2022-12-22T02:03:33;141.85;;;47.42;;
63316;SDS011;49822;41.468;13.560;2022-12-22T02:06:23;154.02;;;50.67;;
63316;SDS011;49822;41.468;13.560;2022-12-22T02:12:10;132.07;;;45.88;;
63316;SDS011;49822;41.468;13.560;2022-12-22T02:15:22;122.82;;;43.60;;
63316;SDS011;49822;41.468;13.560;2022-12-22T02:25:14;102.38;;;39.10;;
63316;SDS011;49822;41.468;13.560;2022-12-22T02:28:05;139.07;;;47.42;;
63316;SDS011;49822;41.468;13.560;2022-12-22T02:30:53;140.85;;;46.40;;
63316;SDS011;49822;41.468;13.560;2022-12-22T02:33:41;136.07;;;44.92;;
63316;SDS011;49822;41.468;13.560;2022-12-22T02:39:23;139.57;;;46.28;;
63316;SDS011;49822;41.468;13.560;2022-12-22T02:42:23;132.45;;;46.03;;
63316;SDS011;49822;41.468;13.560;2022-12-22T02:51:18;137.98;;;45.75;;
63316;SDS011;49822;41.468;13.560;2022-12-22T02:54:07;149.43;;;49.50;;
63316;SDS011;49822;41.468;13.560;2022-12-22T02:56:54;176.13;;;54.55;;
63316;SDS011;49822;41.468;13.560;2022-12-22T02:59:41;146.32;;;47.13;;
63316;SDS011;49822;41.468;13.560;2022-12-22T03:02:26;134.77;;;46.38;;
63316;SDS011;49822;41.468;13.560;2022-12-22T03:05:12;140.75;;;48.63;;
63316;SDS011;49822;41.468;13.560;2022-12-22T03:07:59;142.43;;;46.03;;
63316;SDS011;49822;41.468;13.560;2022-12-22T03:10:45;130.35;;;43.45;;
63316;SDS011;49822;41.468;13.560;2022-12-22T03:13:31;123.57;;;41.45;;
63316;SDS011;49822;41.468;13.560;2022-12-22T03:16:16;115.35;;;38.05;;
63316;SDS011;49822;41.468;13.560;2022-12-22T03:19:02;124.75;;;41.60;;
63316;SDS011;49822;41.468;13.560;2022-12-22T03:21:49;140.20;;;43.78;;
63316;SDS011;49822;41.468;13.560;2022-12-22T03:24:35;118.97;;;43.17;;
63316;SDS011;49822;41.468;13.560;2022-12-22T03:27:21;161.02;;;49.95;;
63316;SDS011;49822;41.468;13.560;2022-12-22T03:29:49;143.02;;;44.83;;
63316;SDS011;49822;41.468;13.560;2022-12-22T03:32:16;144.35;;;47.10;;
63316;SDS011;49822;41.468;13.560;2022-12-22T03:34:44;139.23;;;44.95;;
63316;SDS011;49822;41.468;13.560;2022-12-22T03:37:11;152.30;;;48.35;;
63316;SDS011;49822;41.468;13.560;2022-12-22T03:39:41;150.48;;;47.50;;
63316;SDS011;49822;41.468;13.560;2022-12-22T03:42:11;133.15;;;43.42;;
63316;SDS011;49822;41.468;13.560;2022-12-22T03:44:58;139.70;;;44.47;;
63316;SDS011;49822;41.468;13.560;2022-12-22T03:47:47;137.02;;;42.90;;
63316;SDS011;49822;41.468;13.560;2022-12-22T03:50:15;116.10;;;42.22;;
63316;SDS011;49822;41.468;13.560;2022-12-22T03:52:42;145.75;;;43.33;;
63316;SDS011;49822;41.468;13.560;2022-12-22T03:55:10;145.80;;;50.13;;
63316;SDS011;49822;41.468;13.560;2022-12-22T03:57:37;127.95;;;44.83;;
63316;SDS011;49822;41.468;13.560;2022-12-22T04:00:05;139.48;;;44.47;;
63316;SDS011;49822;41.468;13.560;2022-12-22T04:02:37;131.60;;;43.55;;
63316;SDS011;49822;41.468;13.560;2022-12-22T04:05:05;120.10;;;41.50;;
63316;SDS011;49822;41.468;13.560;2022-12-22T04:07:33;136.40;;;43.65;;
63316;SDS011;49822;41.468;13.560;2022-12-22T04:10:00;147.32;;;45.45;;
63316;SDS011;49822;41.468;13.560;2022-12-22T04:13:02;135.00;;;40.45;;
63316;SDS011;49822;41.468;13.560;2022-12-22T04:15:30;122.45;;;39.75;;
63316;SDS011;49822;41.468;13.560;2022-12-22T04:18:01;121.50;;;42.78;;
63316;SDS011;49822;41.468;13.560;2022-12-22T04:20:28;127.18;;;42.35;;
63316;SDS011;49822;41.468;13.560;2022-12-22T04:22:57;149.15;;;45.95;;
63316;SDS011;49822;41.468;13.560;2022-12-22T04:25:25;167.32;;;52.70;;
63316;SDS011;49822;41.468;13.560;2022-12-22T04:27:53;130.38;;;45.17;;
63316;SDS011;49822;41.468;13.560;2022-12-22T04:30:21;152.07;;;50.20;;
63316;SDS011;49822;41.468;13.560;2022-12-22T04:32:55;153.82;;;49.05;;
63316;SDS011;49822;41.468;13.560;2022-12-22T04:35:22;146.48;;;51.05;;
63316;SDS011;49822;41.468;13.560;2022-12-22T04:37:49;133.27;;;43.00;;
63316;SDS011;49822;41.468;13.560;2022-12-22T04:40:17;133.05;;;43.60;;
63316;SDS011;49822;41.468;13.560;2022-12-22T04:42:44;143.07;;;44.22;;
63316;SDS011;49822;41.468;13.560;2022-12-22T04:45:12;147.95;;;48.22;;
63316;SDS011;49822;41.468;13.560;2022-12-22T04:47:40;140.55;;;46.72;;
63316;SDS011;49822;41.468;13.560;2022-12-22T04:50:08;148.13;;;49.78;;
63316;SDS011;49822;41.468;13.560;2022-12-22T04:52:37;134.20;;;48.10;;
63316;SDS011;49822;41.468;13.560;2022-12-22T04:55:04;139.63;;;46.00;;
63316;SDS011;49822;41.468;13.560;2022-12-22T04:57:32;135.27;;;45.17;;
63316;SDS011;49822;41.468;13.560;2022-12-22T05:00:07;149.38;;;44.67;;
63316;SDS011;49822;41.468;13.560;2022-12-22T05:02:35;118.90;;;40.60;;
63316;SDS011;49822;41.468;13.560;2022-12-22T05:05:03;129.18;;;42.10;;
63316;SDS011;49822;41.468;13.560;2022-12-22T05:07:31;132.88;;;44.35;;
63316;SDS011;49822;41.468;13.560;2022-12-22T05:09:58;163.35;;;48.05;;
63316;SDS011;49822;41.468;13.560;2022-12-22T05:12:25;144.10;;;46.70;;
63316;SDS011;49822;41.468;13.560;2022-12-22T05:15:20;149.38;;;45.00;;
63316;SDS011;49822;41.468;13.560;2022-12-22T05:17:53;148.02;;;45.72;;
63316;SDS011;49822;41.468;13.560;2022-12-22T05:20:23;169.75;;;53.25;;
63316;SDS011;49822;41.468;13.560;2022-12-22T05:22:57;164.38;;;52.72;;
63316;SDS011;49822;41.468;13.560;2022-12-22T05:25:24;158.40;;;51.42;;
63316;SDS011;49822;41.468;13.560;2022-12-22T05:28:00;149.43;;;48.08;;
63316;SDS011;49822;41.468;13.560;2022-12-22T05:30:28;142.98;;;48.55;;
63316;SDS011;49822;41.468;13.560;2022-12-22T05:32:56;165.02;;;54.05;;
63316;SDS011;49822;41.468;13.560;2022-12-22T05:35:23;174.15;;;56.58;;
63316;SDS011;49822;41.468;13.560;2022-12-22T05:37:50;148.45;;;49.35;;
63316;SDS011;49822;41.468;13.560;2022-12-22T05:40:18;129.95;;;43.92;;
63316;SDS011;49822;41.468;13.560;2022-12-22T05:42:45;135.50;;;45.05;;
63316;SDS011;49822;41.468;13.560;2022-12-22T05:45:14;134.00;;;48.20;;
63316;SDS011;49822;41.468;13.560;2022-12-22T05:47:46;133.57;;;45.63;;
63316;SDS011;49822;41.468;13.560;2022-12-22T05:50:16;124.38;;;43.83;;
63316;SDS011;49822;41.468;13.560;2022-12-22T05:52:55;132.52;;;40.53;;
63316;SDS011;49822;41.468;13.560;2022-12-22T05:55:23;125.20;;;47.17;;
63316;SDS011;49822;41.468;13.560;2022-12-22T05:57:50;136.95;;;50.20;;
63316;SDS011;49822;41.468;13.560;2022-12-22T06:00:19;158.95;;;53.58;;
63316;SDS011;49822;41.468;13.560;2022-12-22T06:02:53;129.73;;;47.45;;
63316;SDS011;49822;41.468;13.560;2022-12-22T06:05:22;125.95;;;45.67;;
63316;SDS011;49822;41.468;13.560;2022-12-22T06:07:50;156.05;;;55.25;;
63316;SDS011;49822;41.468;13.560;2022-12-22T06:10:18;130.68;;;46.25;;
63316;SDS011;49822;41.468;13.560;2022-12-22T06:12:46;141.32;;;47.13;;
63316;SDS011;49822;41.468;13.560;2022-12-22T06:15:13;151.48;;;54.03;;
63316;SDS011;49822;41.468;13.560;2022-12-22T06:17:43;129.70;;;48.70;;
63316;SDS011;49822;41.468;13.560;2022-12-22T06:20:11;139.63;;;48.25;;
63316;SDS011;49822;41.468;13.560;2022-12-22T06:22:40;153.30;;;55.97;;
63316;SDS011;49822;41.468;13.560;2022-12-22T06:25:08;148.23;;;58.30;;
63316;SDS011;49822;41.468;13.560;2022-12-22T06:27:43;132.07;;;52.63;;
63316;SDS011;49822;41.468;13.560;2022-12-22T06:30:12;172.23;;;61.25;;
63316;SDS011;49822;41.468;13.560;2022-12-22T06:35:10;149.23;;;51.22;;
63316;SDS011;49822;41.468;13.560;2022-12-22T06:37:39;145.45;;;50.08;;
63316;SDS011;49822;41.468;13.560;2022-12-22T06:40:07;132.40;;;45.13;;
63316;SDS011;49822;41.468;13.560;2022-12-22T06:42:35;139.82;;;43.35;;
63316;SDS011;49822;41.468;13.560;2022-12-22T06:45:26;105.60;;;41.72;;
63316;SDS011;49822;41.468;13.560;2022-12-22T06:47:58;135.13;;;47.53;;
63316;SDS011;49822;41.468;13.560;2022-12-22T06:50:26;179.77;;;55.00;;
63316;SDS011;49822;41.468;13.560;2022-12-22T06:52:53;154.13;;;50.20;;
63316;SDS011;49822;41.468;13.560;2022-12-22T06:55:21;123.43;;;47.78;;
63316;SDS011;49822;41.468;13.560;2022-12-22T06:57:49;113.15;;;43.85;;
63316;SDS011;49822;41.468;13.560;2022-12-22T07:00:16;120.05;;;44.28;;
63316;SDS011;49822;41.468;13.560;2022-12-22T07:02:51;106.20;;;42.35;;
63316;SDS011;49822;41.468;13.560;2022-12-22T07:05:19;105.55;;;42.15;;
63316;SDS011;49822;41.468;13.560;2022-12-22T07:07:47;120.38;;;45.13;;
63316;SDS011;49822;41.468;13.560;2022-12-22T07:10:14;117.72;;;44.90;;
63316;SDS011;49822;41.468;13.560;2022-12-22T07:12:42;127.25;;;45.75;;
63316;SDS011;49822;41.468;13.560;2022-12-22T07:15:10;113.35;;;43.65;;
63316;SDS011;49822;41.468;13.560;2022-12-22T07:17:38;106.53;;;41.00;;
63316;SDS011;49822;41.468;13.560;2022-12-22T07:20:08;96.82;;;41.58;;
63316;SDS011;49822;41.468;13.560;2022-12-22T07:22:37;92.07;;;38.38;;
63316;SDS011;49822;41.468;13.560;2022-12-22T07:25:04;84.72;;;37.20;;
63316;SDS011;49822;41.468;13.560;2022-12-22T07:27:35;86.03;;;37.28;;
63316;SDS011;49822;41.468;13.560;2022-12-22T07:30:03;85.78;;;38.63;;
63316;SDS011;49822;41.468;13.560;2022-12-22T07:32:34;89.10;;;39.75;;
63316;SDS011;49822;41.468;13.560;2022-12-22T07:35:04;107.35;;;43.72;;
63316;SDS011;49822;41.468;13.560;2022-12-22T07:37:32;101.88;;;41.45;;
63316;SDS011;49822;41.468;13.560;2022-12-22T07:39:59;97.38;;;36.88;;
63316;SDS011;49822;41.468;13.560;2022-12-22T07:42:26;124.10;;;45.30;;
63316;SDS011;49822;41.468;13.560;2022-12-22T07:45:13;92.90;;;35.15;;
63316;SDS011;49822;41.468;13.560;2022-12-22T07:47:45;117.35;;;42.63;;
63316;SDS011;49822;41.468;13.560;2022-12-22T07:50:14;116.13;;;43.95;;
63316;SDS011;49822;41.468;13.560;2022-12-22T07:53:02;118.72;;;42.85;;
63316;SDS011;49822;41.468;13.560;2022-12-22T07:55:30;113.93;;;43.90;;
63316;SDS011;49822;41.468;13.560;2022-12-22T07:58:01;121.25;;;46.40;;
63316;SDS011;49822;41.468;13.560;2022-12-22T08:00:29;149.27;;;51.85;;
63316;SDS011;49822;41.468;13.560;2022-12-22T08:02:58;115.68;;;42.97;;
63316;SDS011;49822;41.468;13.560;2022-12-22T08:05:27;115.82;;;44.00;;
63316;SDS011;49822;41.468;13.560;2022-12-22T08:07:55;108.25;;;45.28;;
63316;SDS011;49822;41.468;13.560;2022-12-22T08:10:22;152.05;;;50.88;;
63316;SDS011;49822;41.468;13.560;2022-12-22T08:12:50;159.95;;;51.95;;
63316;SDS011;49822;41.468;13.560;2022-12-22T08:15:21;156.20;;;53.88;;
63316;SDS011;49822;41.468;13.560;2022-12-22T08:17:53;159.25;;;55.13;;
63316;SDS011;49822;41.468;13.560;2022-12-22T08:20:21;171.15;;;62.47;;
63316;SDS011;49822;41.468;13.560;2022-12-22T08:22:50;171.98;;;59.05;;
63316;SDS011;49822;41.468;13.560;2022-12-22T08:25:26;130.57;;;49.00;;
63316;SDS011;49822;41.468;13.560;2022-12-22T08:27:56;123.18;;;46.47;;
63316;SDS011;49822;41.468;13.560;2022-12-22T08:30:25;142.93;;;55.78;;
63316;SDS011;49822;41.468;13.560;2022-12-22T08:32:55;166.02;;;62.50;;
63316;SDS011;49822;41.468;13.560;2022-12-22T08:35:23;210.27;;;72.47;;
63316;SDS011;49822;41.468;13.560;2022-12-22T08:37:53;181.05;;;65.47;;
63316;SDS011;49822;41.468;13.560;2022-12-22T08:40:22;227.77;;;80.35;;
63316;SDS011;49822;41.468;13.560;2022-12-22T08:42:53;221.43;;;82.75;;
63316;SDS011;49822;41.468;13.560;2022-12-22T08:45:26;234.23;;;88.95;;
63316;SDS011;49822;41.468;13.560;2022-12-22T08:47:59;181.35;;;68.80;;
63316;SDS011;49822;41.468;13.560;2022-12-22T08:50:27;176.40;;;67.38;;
63316;SDS011;49822;41.468;13.560;2022-12-22T08:53:03;197.65;;;70.40;;
63316;SDS011;49822;41.468;13.560;2022-12-22T08:55:31;188.65;;;68.57;;
63316;SDS011;49822;41.468;13.560;2022-12-22T08:58:02;172.82;;;65.07;;
63316;SDS011;49822;41.468;13.560;2022-12-22T09:00:29;155.68;;;55.47;;
63316;SDS011;49822;41.468;13.560;2022-12-22T09:03:01;152.77;;;54.65;;
63316;SDS011;49822;41.468;13.560;2022-12-22T09:05:29;131.68;;;51.53;;
63316;SDS011;49822;41.468;13.560;2022-12-22T09:07:59;128.90;;;51.70;;
63316;SDS011;49822;41.468;13.560;2022-12-22T09:10:28;121.78;;;48.63;;
63316;SDS011;49822;41.468;13.560;2022-12-22T09:12:55;172.00;;;76.10;;
63316;SDS011;49822;41.468;13.560;2022-12-22T09:15:26;167.40;;;68.97;;
63316;SDS011;49822;41.468;13.560;2022-12-22T09:17:56;155.15;;;55.97;;
63316;SDS011;49822;41.468;13.560;2022-12-22T09:20:23;137.07;;;54.20;;
63316;SDS011;49822;41.468;13.560;2022-12-22T09:22:56;129.18;;;50.80;;
63316;SDS011;49822;41.468;13.560;2022-12-22T09:25:24;131.52;;;53.72;;
63316;SDS011;49822;41.468;13.560;2022-12-22T09:27:52;122.28;;;51.92;;
63316;SDS011;49822;41.468;13.560;2022-12-22T09:30:20;108.13;;;47.25;;
63316;SDS011;49822;41.468;13.560;2022-12-22T09:32:54;98.55;;;45.03;;
63316;SDS011;49822;41.468;13.560;2022-12-22T09:35:21;108.20;;;50.80;;
63316;SDS011;49822;41.468;13.560;2022-12-22T09:37:49;98.15;;;44.85;;
63316;SDS011;49822;41.468;13.560;2022-12-22T09:40:16;138.25;;;70.95;;
63316;SDS011;49822;41.468;13.560;2022-12-22T09:45:14;68.07;;;35.38;;
63316;SDS011;49822;41.468;13.560;2022-12-22T09:47:53;70.85;;;37.33;;
63316;SDS011;49822;41.468;13.560;2022-12-22T09:50:22;83.00;;;39.17;;
63316;SDS011;49822;41.468;13.560;2022-12-22T09:52:52;81.88;;;38.97;;
63316;SDS011;49822;41.468;13.560;2022-12-22T09:57:50;63.13;;;36.63;;
63316;SDS011;49822;41.468;13.560;2022-12-22T10:00:26;83.00;;;39.55;;
63316;SDS011;49822;41.468;13.560;2022-12-22T10:03:13;72.13;;;39.05;;
63316;SDS011;49822;41.468;13.560;2022-12-22T10:09:21;86.07;;;42.47;;
63316;SDS011;49822;41.468;13.560;2022-12-22T10:12:15;87.05;;;43.90;;
63316;SDS011;49822;41.468;13.560;2022-12-22T10:14:46;82.95;;;42.25;;
63316;SDS011;49822;41.468;13.560;2022-12-22T10:17:23;88.88;;;44.55;;
63316;SDS011;49822;41.468;13.560;2022-12-22T10:22:52;85.90;;;40.60;;
63316;SDS011;49822;41.468;13.560;2022-12-22T10:25:30;81.63;;;39.78;;
63316;SDS011;49822;41.468;13.560;2022-12-22T10:28:24;92.07;;;44.38;;
63316;SDS011;49822;41.468;13.560;2022-12-22T10:33:43;89.40;;;46.05;;
63316;SDS011;49822;41.468;13.560;2022-12-22T10:36:14;117.95;;;53.13;;
63316;SDS011;49822;41.468;13.560;2022-12-22T10:38:53;138.45;;;53.33;;
63316;SDS011;49822;41.468;13.560;2022-12-22T10:41:35;66.32;;;35.15;;
63316;SDS011;49822;41.468;13.560;2022-12-22T10:44:08;50.58;;;30.02;;
63316;SDS011;49822;41.468;13.560;2022-12-22T10:46:57;56.75;;;32.25;;
63316;SDS011;49822;41.468;13.560;2022-12-22T10:49:29;53.08;;;28.95;;
63316;SDS011;49822;41.468;13.560;2022-12-22T10:52:10;61.10;;;32.28;;
63316;SDS011;49822;41.468;13.560;2022-12-22T10:55:15;62.22;;;35.85;;
63316;SDS011;49822;41.468;13.560;2022-12-22T11:00:58;54.42;;;31.92;;
63316;SDS011;49822;41.468;13.560;2022-12-22T11:03:29;92.97;;;44.92;;
63316;SDS011;49822;41.468;13.560;2022-12-22T11:06:07;88.90;;;44.95;;
63316;SDS011;49822;41.468;13.560;2022-12-22T11:08:42;78.70;;;39.40;;
63316;SDS011;49822;41.468;13.560;2022-12-22T11:11:31;81.72;;;40.22;;
63316;SDS011;49822;41.468;13.560;2022-12-22T11:17:00;72.78;;;35.40;;
63316;SDS011;49822;41.468;13.560;2022-12-22T11:22:33;80.10;;;38.78;;
63316;SDS011;49822;41.468;13.560;2022-12-22T11:30:59;84.75;;;39.88;;
63316;SDS011;49822;41.468;13.560;2022-12-22T11:33:43;85.65;;;41.35;;
63316;SDS011;49822;41.468;13.560;2022-12-22T11:36:21;79.93;;;43.67;;
63316;SDS011;49822;41.468;13.560;2022-12-22T11:38:54;103.38;;;45.22;;
63316;SDS011;49822;41.468;13.560;2022-12-22T11:44:59;102.82;;;46.72;;
63316;SDS011;49822;41.468;13.560;2022-12-22T11:49:43;92.75;;;45.17;;
63316;SDS011;49822;41.468;13.560;2022-12-22T11:55:27;106.18;;;45.72;;
63316;SDS011;49822;41.468;13.560;2022-12-22T11:58:09;84.38;;;42.35;;
63316;SDS011;49822;41.468;13.560;2022-12-22T12:01:10;82.40;;;43.90;;
63316;SDS011;49822;41.468;13.560;2022-12-22T12:11:48;82.93;;;45.83;;
63316;SDS011;49822;41.468;13.560;2022-12-22T12:14:49;82.25;;;43.17;;
63316;SDS011;49822;41.468;13.560;2022-12-22T12:17:53;79.47;;;40.33;;
63316;SDS011;49822;41.468;13.560;2022-12-22T12:31:31;118.28;;;46.65;;
63316;SDS011;49822;41.468;13.560;2022-12-22T12:34:03;105.60;;;44.50;;
63316;SDS011;49822;41.468;13.560;2022-12-22T12:39:40;82.57;;;40.37;;
63316;SDS011;49822;41.468;13.560;2022-12-22T12:50:47;66.88;;;36.00;;
63316;SDS011;49822;41.468;13.560;2022-12-22T12:53:17;66.90;;;37.73;;
63316;SDS011;49822;41.468;13.560;2022-12-22T12:55:52;75.47;;;36.20;;
63316;SDS011;49822;41.468;13.560;2022-12-22T13:01:09;65.00;;;37.75;;
63316;SDS011;49822;41.468;13.560;2022-12-22T13:03:40;78.88;;;40.10;;
63316;SDS011;49822;41.468;13.560;2022-12-22T13:09:20;85.22;;;40.95;;
63316;SDS011;49822;41.468;13.560;2022-12-22T13:15:25;77.47;;;38.63;;
63316;SDS011;49822;41.468;13.560;2022-12-22T13:17:57;65.75;;;35.78;;
63316;SDS011;49822;41.468;13.560;2022-12-22T13:20:28;71.97;;;38.25;;
63316;SDS011;49822;41.468;13.560;2022-12-22T13:23:01;93.97;;;45.63;;
63316;SDS011;49822;41.468;13.560;2022-12-22T13:28:16;74.93;;;39.13;;
63316;SDS011;49822;41.468;13.560;2022-12-22T13:30:47;78.88;;;39.58;;
63316;SDS011;49822;41.468;13.560;2022-12-22T13:33:38;67.63;;;36.72;;
63316;SDS011;49822;41.468;13.560;2022-12-22T13:36:20;68.03;;;35.22;;
63316;SDS011;49822;41.468;13.560;2022-12-22T13:39:05;72.40;;;39.42;;
63316;SDS011;49822;41.468;13.560;2022-12-22T13:41:39;67.00;;;35.05;;
63316;SDS011;49822;41.468;13.560;2022-12-22T13:44:28;65.38;;;36.20;;
63316;SDS011;49822;41.468;13.560;2022-12-22T13:47:05;73.28;;;38.80;;
63316;SDS011;49822;41.468;13.560;2022-12-22T13:49:39;84.93;;;40.13;;
63316;SDS011;49822;41.468;13.560;2022-12-22T13:52:28;72.05;;;39.58;;
63316;SDS011;49822;41.468;13.560;2022-12-22T13:54:56;87.15;;;46.10;;
63316;SDS011;49822;41.468;13.560;2022-12-22T13:57:23;80.97;;;43.97;;
63316;SDS011;49822;41.468;13.560;2022-12-22T13:59:51;87.93;;;42.60;;
63316;SDS011;49822;41.468;13.560;2022-12-22T14:02:20;77.43;;;42.15;;
63316;SDS011;49822;41.468;13.560;2022-12-22T14:07:59;85.47;;;40.67;;
63316;SDS011;49822;41.468;13.560;2022-12-22T14:10:36;86.82;;;44.65;;
63316;SDS011;49822;41.468;13.560;2022-12-22T14:13:13;85.47;;;41.40;;
63316;SDS011;49822;41.468;13.560;2022-12-22T14:15:44;82.30;;;39.05;;
63316;SDS011;49822;41.468;13.560;2022-12-22T14:18:15;87.75;;;43.40;;
63316;SDS011;49822;41.468;13.560;2022-12-22T14:20:47;90.15;;;46.05;;
63316;SDS011;49822;41.468;13.560;2022-12-22T14:23:16;83.03;;;44.30;;
63316;SDS011;49822;41.468;13.560;2022-12-22T14:25:51;89.60;;;41.67;;
63316;SDS011;49822;41.468;13.560;2022-12-22T14:28:25;83.57;;;41.80;;
63316;SDS011;49822;41.468;13.560;2022-12-22T14:30:57;95.60;;;42.50;;
63316;SDS011;49822;41.468;13.560;2022-12-22T14:33:28;91.57;;;47.55;;
63316;SDS011;49822;41.468;13.560;2022-12-22T14:38:43;107.93;;;49.95;;
63316;SDS011;49822;41.468;13.560;2022-12-22T14:44:03;128.40;;;59.07;;
63316;SDS011;49822;41.468;13.560;2022-12-22T14:46:31;117.72;;;52.38;;
63316;SDS011;49822;41.468;13.560;2022-12-22T14:49:04;96.18;;;47.40;;
63316;SDS011;49822;41.468;13.560;2022-12-22T14:51:37;111.72;;;51.50;;
63316;SDS011;49822;41.468;13.560;2022-12-22T14:54:05;91.00;;;46.10;;
63316;SDS011;49822;41.468;13.560;2022-12-22T14:56:33;87.68;;;43.17;;
63316;SDS011;49822;41.468;13.560;2022-12-22T14:59:19;75.70;;;39.42;;
63316;SDS011;49822;41.468;13.560;2022-12-22T15:01:56;75.50;;;40.70;;
63316;SDS011;49822;41.468;13.560;2022-12-22T15:04:25;75.03;;;42.10;;
63316;SDS011;49822;41.468;13.560;2022-12-22T15:07:02;85.20;;;43.00;;
63316;SDS011;49822;41.468;13.560;2022-12-22T15:10:02;79.43;;;41.45;;
63316;SDS011;49822;41.468;13.560;2022-12-22T15:12:41;112.38;;;53.58;;
63316;SDS011;49822;41.468;13.560;2022-12-22T15:15:19;113.53;;;53.65;;
63316;SDS011;49822;41.468;13.560;2022-12-22T15:17:54;95.47;;;47.65;;
63316;SDS011;49822;41.468;13.560;2022-12-22T15:20:23;101.57;;;49.28;;
63316;SDS011;49822;41.468;13.560;2022-12-22T15:22:52;111.63;;;51.80;;
63316;SDS011;49822;41.468;13.560;2022-12-22T15:25:21;109.18;;;54.63;;
63316;SDS011;49822;41.468;13.560;2022-12-22T15:27:50;93.70;;;51.30;;
63316;SDS011;49822;41.468;13.560;2022-12-22T15:30:19;109.60;;;48.65;;
63316;SDS011;49822;41.468;13.560;2022-12-22T15:32:57;88.85;;;43.53;;
63316;SDS011;49822;41.468;13.560;2022-12-22T15:35:29;90.32;;;41.15;;
63316;SDS011;49822;41.468;13.560;2022-12-22T15:37:58;94.68;;;44.22;;
63316;SDS011;49822;41.468;13.560;2022-12-22T15:40:26;136.00;;;56.30;;
63316;SDS011;49822;41.468;13.560;2022-12-22T15:42:55;91.60;;;45.53;;
63316;SDS011;49822;41.468;13.560;2022-12-22T15:45:24;53.00;;;26.17;;
63316;SDS011;49822;41.468;13.560;2022-12-22T15:47:56;45.67;;;26.52;;
63316;SDS011;49822;41.468;13.560;2022-12-22T15:50:57;65.63;;;34.85;;
63316;SDS011;49822;41.468;13.560;2022-12-22T15:53:18;61.38;;;30.38;;
63316;SDS011;49822;41.468;13.560;2022-12-22T15:55:48;59.40;;;31.90;;
63316;SDS011;49822;41.468;13.560;2022-12-22T15:58:21;56.30;;;30.65;;
63316;SDS011;49822;41.468;13.560;2022-12-22T16:00:51;43.85;;;24.42;;
63316;SDS011;49822;41.468;13.560;2022-12-22T16:03:19;46.30;;;25.63;;
63316;SDS011;49822;41.468;13.560;2022-12-22T16:05:47;40.28;;;22.48;;
63316;SDS011;49822;41.468;13.560;2022-12-22T16:08:16;47.80;;;27.42;;
63316;SDS011;49822;41.468;13.560;2022-12-22T16:10:47;51.85;;;29.38;;
63316;SDS011;49822;41.468;13.560;2022-12-22T16:13:16;59.88;;;33.38;;
63316;SDS011;49822;41.468;13.560;2022-12-22T16:15:48;64.10;;;33.15;;
63316;SDS011;49822;41.468;13.560;2022-12-22T16:18:17;72.45;;;37.58;;
63316;SDS011;49822;41.468;13.560;2022-12-22T16:20:45;65.63;;;33.85;;
63316;SDS011;49822;41.468;13.560;2022-12-22T16:23:16;73.82;;;36.92;;
63316;SDS011;49822;41.468;13.560;2022-12-22T16:25:53;121.00;;;49.40;;
63316;SDS011;49822;41.468;13.560;2022-12-22T16:28:28;119.03;;;49.80;;
63316;SDS011;49822;41.468;13.560;2022-12-22T16:30:56;90.28;;;43.78;;
63316;SDS011;49822;41.468;13.560;2022-12-22T16:33:23;95.35;;;44.72;;
63316;SDS011;49822;41.468;13.560;2022-12-22T16:35:51;113.97;;;51.42;;
63316;SDS011;49822;41.468;13.560;2022-12-22T16:38:18;107.15;;;47.55;;